Time;durP1;ratioP1;P1;durP2;ratioP2;P2;SDS_P1;SDS_P2;PMS_P1;PMS_P2;Temp;Humidity;BMP_temperature;BMP_pressure;BME280_temperature;BME280_humidity;BME280_pressure;Samples;Min_cycle;Max_cycle;Signal;HPM_P1;HPM_P2
2021/12/29 00:01:08;;;;;;;8.90;5.10;;;9.00;99.90;;;;;;6180831;23;20015;-87
2021/12/29 00:03:34;;;;;;;10.93;5.90;;;9.00;99.90;;;;;;6155451;23;20349;-86
2021/12/29 00:05:59;;;;;;;12.82;6.53;;;9.00;99.90;;;;;;6180793;23;20009;-86
2021/12/29 00:08:25;;;;;;;12.60;6.78;;;9.00;99.90;;;;;;6158368;23;20421;-87
2021/12/29 00:10:55;;;;;;;11.48;6.57;;;9.00;99.90;;;;;;6154723;23;20429;-88
2021/12/29 00:13:22;;;;;;;10.23;5.82;;;9.00;99.90;;;;;;6156746;23;20009;-86
2021/12/29 00:15:58;;;;;;;10.73;6.22;;;9.00;99.90;;;;;;6182090;23;20001;-87
2021/12/29 00:18:31;;;;;;;10.98;7.32;;;9.00;99.90;;;;;;6154771;23;20009;-85
2021/12/29 00:21:05;;;;;;;11.57;6.40;;;9.00;99.90;;;;;;6153380;23;20012;-86
2021/12/29 00:23:37;;;;;;;11.27;5.57;;;9.00;99.90;;;;;;6173592;23;20091;-87
2021/12/29 00:26:04;;;;;;;10.80;5.85;;;9.00;99.90;;;;;;6155617;23;20017;-87
2021/12/29 00:28:29;;;;;;;9.48;5.63;;;9.00;99.90;;;;;;6155847;23;20001;-88
2021/12/29 00:30:58;;;;;;;10.23;4.75;;;9.00;99.90;;;;;;6155159;23;20063;-89
2021/12/29 00:33:24;;;;;;;9.38;4.32;;;9.00;99.90;;;;;;6153935;23;20036;-86
2021/12/29 00:35:51;;;;;;;7.53;4.50;;;9.00;99.90;;;;;;6180669;23;20303;-89
2021/12/29 00:38:17;;;;;;;7.78;4.55;;;9.00;99.90;;;;;;6181097;23;20016;-88
2021/12/29 00:40:47;;;;;;;9.48;5.32;;;9.00;99.90;;;;;;6182541;23;20016;-89
2021/12/29 00:43:15;;;;;;;10.10;5.35;;;9.10;99.90;;;;;;6180905;23;20013;-87
2021/12/29 00:45:42;;;;;;;9.50;5.18;;;9.00;99.90;;;;;;6128705;23;20012;-87
2021/12/29 00:48:12;;;;;;;9.32;5.55;;;9.00;99.90;;;;;;6153321;23;20596;-87
2021/12/29 00:50:39;;;;;;;10.68;6.15;;;9.00;99.90;;;;;;6158399;23;20005;-88
2021/12/29 00:53:06;;;;;;;11.52;6.13;;;9.00;99.90;;;;;;6160890;23;20059;-90
2021/12/29 00:55:34;;;;;;;13.00;6.25;;;9.00;99.90;;;;;;6161132;23;20313;-88
2021/12/29 00:58:00;;;;;;;10.02;6.65;;;9.00;99.90;;;;;;6163532;23;20001;-88
2021/12/29 01:00:26;;;;;;;7.88;5.60;;;9.00;99.90;;;;;;6199722;23;20001;-87
2021/12/29 01:02:52;;;;;;;9.68;5.40;;;9.10;99.90;;;;;;6186845;23;20049;-86
2021/12/29 01:05:18;;;;;;;10.00;6.43;;;9.00;99.90;;;;;;6185765;23;20004;-87
2021/12/29 01:07:47;;;;;;;10.35;6.75;;;9.10;99.90;;;;;;6186014;23;20028;-88
2021/12/29 01:10:14;;;;;;;14.15;8.30;;;9.10;99.90;;;;;;6163704;23;20325;-87
2021/12/29 01:12:46;;;;;;;13.00;7.22;;;9.10;99.90;;;;;;6162455;23;20005;-87
2021/12/29 01:15:16;;;;;;;13.82;7.32;;;9.00;99.90;;;;;;6161555;23;20096;-88
2021/12/29 01:17:43;;;;;;;14.80;8.02;;;9.10;99.90;;;;;;6161372;23;20426;-88
2021/12/29 01:20:13;;;;;;;12.65;7.07;;;9.10;99.90;;;;;;6187480;23;20075;-86
2021/12/29 01:22:40;;;;;;;12.35;7.15;;;9.10;99.90;;;;;;6161502;23;20021;-86
2021/12/29 01:25:07;;;;;;;12.48;6.90;;;9.00;99.90;;;;;;6160982;23;20001;-87
2021/12/29 01:27:34;;;;;;;11.60;6.13;;;9.10;99.90;;;;;;6184853;23;20036;-87
2021/12/29 01:30:02;;;;;;;12.10;5.70;;;9.10;99.90;;;;;;6161132;23;20013;-88
2021/12/29 01:32:27;;;;;;;12.65;5.70;;;9.10;99.90;;;;;;6161322;23;20005;-87
2021/12/29 01:34:53;;;;;;;12.75;6.00;;;9.10;99.90;;;;;;6160595;23;20148;-88
2021/12/29 01:37:19;;;;;;;11.95;6.38;;;9.00;99.90;;;;;;6186373;23;20009;-87
2021/12/29 01:39:45;;;;;;;10.70;5.60;;;9.00;99.90;;;;;;6186783;23;20005;-87
2021/12/29 01:42:14;;;;;;;13.60;5.97;;;9.00;99.90;;;;;;6135471;23;20099;-87
2021/12/29 01:44:40;;;;;;;13.98;7.45;;;9.10;99.90;;;;;;6187170;23;19997;-86
2021/12/29 01:47:06;;;;;;;17.25;8.27;;;9.10;99.90;;;;;;6159763;23;20075;-85
2021/12/29 01:49:38;;;;;;;15.88;8.52;;;9.10;99.90;;;;;;6160491;23;20051;-87
2021/12/29 01:52:12;;;;;;;21.75;9.88;;;9.10;99.90;;;;;;6160393;23;20037;-86
2021/12/29 01:54:38;;;;;;;18.70;9.95;;;9.10;99.90;;;;;;6162324;23;20001;-85
2021/12/29 01:57:09;;;;;;;17.15;9.23;;;9.10;99.90;;;;;;6160796;23;20441;-87
2021/12/29 01:59:35;;;;;;;17.15;9.48;;;9.10;99.90;;;;;;6160667;23;20005;-86
2021/12/29 02:02:02;;;;;;;20.67;9.80;;;9.10;99.90;;;;;;6190077;23;20016;-87
2021/12/29 02:04:29;;;;;;;17.98;10.50;;;9.10;99.90;;;;;;6160685;23;20096;-88
2021/12/29 02:06:55;;;;;;;17.60;9.32;;;9.10;99.90;;;;;;6160509;23;20016;-88
2021/12/29 02:09:20;;;;;;;15.25;8.75;;;9.10;99.90;;;;;;6159821;23;20008;-88
2021/12/29 02:11:48;;;;;;;16.08;8.98;;;9.10;99.90;;;;;;6160471;23;20005;-88
2021/12/29 02:14:14;;;;;;;20.98;9.90;;;9.10;99.90;;;;;;6186021;23;20023;-88
2021/12/29 02:16:41;;;;;;;17.35;9.70;;;9.10;99.90;;;;;;6186642;23;19997;-89
2021/12/29 02:19:11;;;;;;;18.95;9.50;;;9.10;99.90;;;;;;6159212;23;20386;-89
2021/12/29 02:21:38;;;;;;;14.77;9.70;;;9.10;99.90;;;;;;6186044;23;20071;-89
2021/12/29 02:26:39;;;;;;;14.00;8.98;;;9.10;99.90;;;;;;6195657;23;20009;-89
2021/12/29 02:29:11;;;;;;;15.52;9.38;;;9.10;99.90;;;;;;6159599;23;20040;-88
2021/12/29 02:31:39;;;;;;;15.20;8.70;;;9.10;99.90;;;;;;6186267;23;20001;-88
2021/12/29 02:34:08;;;;;;;13.43;7.55;;;9.10;99.90;;;;;;6135283;23;20009;-88
2021/12/29 02:36:35;;;;;;;14.40;7.60;;;9.10;99.90;;;;;;6160593;23;20072;-87
2021/12/29 02:39:03;;;;;;;14.85;7.55;;;9.10;99.90;;;;;;6159385;23;20013;-88
2021/12/29 02:41:31;;;;;;;15.73;8.57;;;9.10;99.90;;;;;;6159770;23;20063;-88
2021/12/29 02:44:00;;;;;;;20.70;10.07;;;9.10;99.90;;;;;;6160699;23;20005;-88
2021/12/29 02:46:29;;;;;;;14.43;8.63;;;9.10;99.90;;;;;;6137106;23;20001;-88
2021/12/29 02:49:02;;;;;;;12.75;7.57;;;9.10;99.90;;;;;;6162322;23;20012;-87
2021/12/29 02:51:31;;;;;;;15.50;7.82;;;9.00;99.90;;;;;;6189074;23;20072;-87
2021/12/29 02:53:58;;;;;;;13.98;6.78;;;9.10;99.90;;;;;;6183992;23;19985;-87
2021/12/29 02:56:26;;;;;;;14.25;6.80;;;9.10;99.90;;;;;;6161348;23;19997;-89
2021/12/29 02:58:53;;;;;;;10.57;6.10;;;9.00;99.90;;;;;;6173146;23;20040;-88
2021/12/29 03:01:20;;;;;;;9.80;5.43;;;9.00;99.90;;;;;;6187880;23;20005;-87
2021/12/29 03:03:47;;;;;;;9.07;5.30;;;9.10;99.90;;;;;;6160971;23;20009;-88
2021/12/29 03:06:15;;;;;;;10.77;6.18;;;9.00;99.90;;;;;;6187017;23;19997;-86
2021/12/29 03:08:44;;;;;;;9.70;5.80;;;9.10;99.90;;;;;;6160412;23;20009;-86
2021/12/29 03:11:12;;;;;;;10.18;5.78;;;9.10;99.90;;;;;;6159655;23;20426;-86
2021/12/29 03:13:40;;;;;;;13.57;5.90;;;9.10;99.90;;;;;;6132789;23;20016;-85
2021/12/29 03:16:07;;;;;;;12.73;5.75;;;9.00;99.90;;;;;;6159578;23;20357;-86
2021/12/29 03:18:35;;;;;;;12.35;6.13;;;9.10;99.90;;;;;;6159724;23;20334;-87
2021/12/29 03:21:02;;;;;;;13.65;6.10;;;9.10;99.90;;;;;;6185988;23;20025;-87
2021/12/29 03:23:28;;;;;;;16.23;6.88;;;9.00;99.90;;;;;;6160185;23;20374;-86
2021/12/29 03:25:54;;;;;;;13.65;6.25;;;9.10;99.90;;;;;;6158973;23;20015;-86
2021/12/29 03:28:22;;;;;;;13.35;6.20;;;9.10;99.90;;;;;;6162582;23;20092;-86
2021/12/29 03:30:53;;;;;;;19.55;7.00;;;9.00;99.90;;;;;;6186488;23;20024;-86
2021/12/29 03:33:20;;;;;;;20.58;8.52;;;9.00;99.90;;;;;;6160045;23;20016;-87
2021/12/29 03:35:51;;;;;;;19.10;7.95;;;9.00;99.90;;;;;;6159411;23;19997;-86
2021/12/29 03:38:21;;;;;;;19.23;9.32;;;9.00;99.90;;;;;;6159580;23;20071;-86
2021/12/29 03:40:48;;;;;;;16.65;8.30;;;9.00;99.90;;;;;;6185854;23;20001;-86
2021/12/29 03:43:14;;;;;;;21.30;8.85;;;9.00;99.90;;;;;;6160477;23;20017;-85
2021/12/29 03:45:44;;;;;;;21.67;10.07;;;9.00;99.90;;;;;;6135652;23;20064;-87
2021/12/29 03:48:12;;;;;;;22.05;9.32;;;8.90;99.90;;;;;;6133962;23;20102;-87
2021/12/29 03:50:41;;;;;;;19.73;8.82;;;9.00;99.90;;;;;;6136209;23;20005;-87
2021/12/29 03:53:13;;;;;;;19.10;9.25;;;8.90;99.90;;;;;;6186192;23;20008;-85
2021/12/29 03:55:48;;;;;;;15.18;7.93;;;9.00;99.90;;;;;;6186239;23;20008;-86
2021/12/29 03:58:14;;;;;;;19.67;9.68;;;9.00;99.90;;;;;;6158696;23;20005;-86
2021/12/29 04:00:40;;;;;;;20.92;9.60;;;9.00;99.90;;;;;;6136241;23;20005;-86
2021/12/29 04:03:06;;;;;;;18.30;9.65;;;9.00;99.90;;;;;;6160346;23;20484;-86
2021/12/29 04:05:33;;;;;;;20.45;9.68;;;8.90;99.90;;;;;;6187436;23;20354;-86
2021/12/29 04:08:00;;;;;;;19.38;9.68;;;8.90;99.90;;;;;;6187465;23;20007;-86
2021/12/29 04:10:26;;;;;;;20.52;9.68;;;9.00;99.90;;;;;;6187555;23;20020;-86
2021/12/29 04:12:52;;;;;;;20.30;8.98;;;9.00;99.90;;;;;;6136846;23;20013;-86
2021/12/29 04:15:18;;;;;;;21.02;8.98;;;9.00;99.90;;;;;;6185266;23;20032;-86
2021/12/29 04:17:45;;;;;;;19.55;9.02;;;9.00;99.90;;;;;;6136482;23;20027;-85
2021/12/29 04:23:05;;;;;;;20.27;8.88;;;9.00;99.90;;;;;;6187485;23;20347;-86
2021/12/29 04:25:35;;;;;;;19.85;8.57;;;8.90;99.90;;;;;;6187112;23;20398;-86
2021/12/29 04:28:03;;;;;;;13.07;8.02;;;8.90;99.90;;;;;;6136825;23;20005;-86
2021/12/29 04:30:30;;;;;;;18.35;8.88;;;8.90;99.90;;;;;;6186560;23;20303;-87
2021/12/29 04:32:57;;;;;;;14.57;8.20;;;8.90;99.90;;;;;;6187148;23;20020;-86
2021/12/29 04:35:23;;;;;;;17.63;7.03;;;8.90;99.90;;;;;;6136224;23;20059;-87
2021/12/29 04:37:52;;;;;;;13.25;7.43;;;8.90;99.90;;;;;;6159959;23;20092;-86
2021/12/29 04:40:20;;;;;;;15.48;7.82;;;8.90;99.90;;;;;;6169629;23;20081;-86
2021/12/29 04:42:47;;;;;;;13.60;6.47;;;8.90;99.90;;;;;;6185623;23;19993;-86
2021/12/29 04:45:13;;;;;;;15.73;6.85;;;8.90;99.90;;;;;;6187283;23;20018;-88
2021/12/29 04:47:42;;;;;;;14.82;7.50;;;8.90;99.90;;;;;;6186029;23;20012;-87
2021/12/29 04:50:24;;;;;;;13.18;7.43;;;8.90;99.90;;;;;;6170036;23;20319;-87
2021/12/29 04:52:57;;;;;;;17.98;8.48;;;8.90;99.90;;;;;;6163013;23;20418;-85
2021/12/29 04:55:24;;;;;;;20.83;10.13;;;8.90;99.90;;;;;;6162130;23;20096;-86
2021/12/29 04:57:51;;;;;;;15.90;9.20;;;8.90;99.90;;;;;;6137590;23;20012;-87
2021/12/29 05:00:24;;;;;;;14.88;8.73;;;8.90;99.90;;;;;;6162638;23;20338;-87
2021/12/29 05:02:50;;;;;;;24.90;11.40;;;8.90;99.90;;;;;;6162805;23;20060;-87
2021/12/29 05:05:37;;;;;;;17.10;10.25;;;8.90;99.90;;;;;;6162227;23;20051;-87
2021/12/29 05:10:50;;;;;;;18.73;9.93;;;8.90;99.90;;;;;;6212496;23;20032;-86
2021/12/29 05:13:17;;;;;;;16.00;10.00;;;8.90;99.90;;;;;;6211420;23;20000;-86
2021/12/29 05:15:42;;;;;;;16.13;10.32;;;8.90;99.90;;;;;;6169177;23;20009;-87
2021/12/29 05:18:10;;;;;;;20.48;11.38;;;8.90;99.90;;;;;;6187131;23;20056;-87
2021/12/29 05:20:36;;;;;;;18.95;11.02;;;8.90;99.90;;;;;;6165337;23;20001;-86
2021/12/29 05:23:02;;;;;;;19.30;11.10;;;8.90;99.90;;;;;;6187196;23;20021;-87
2021/12/29 05:25:29;;;;;;;17.02;10.98;;;8.90;99.90;;;;;;6160592;23;20008;-87
2021/12/29 05:27:55;;;;;;;16.85;10.77;;;8.90;99.90;;;;;;6136579;23;20009;-87
2021/12/29 05:30:23;;;;;;;18.65;10.82;;;8.90;99.90;;;;;;6161147;23;20403;-88
2021/12/29 05:32:49;;;;;;;16.55;10.95;;;8.90;99.90;;;;;;6159160;23;20001;-87
2021/12/29 05:35:18;;;;;;;19.88;10.90;;;8.90;99.90;;;;;;6187430;23;20001;-87
2021/12/29 05:37:44;;;;;;;17.83;10.90;;;8.90;99.90;;;;;;6158511;23;20021;-87
2021/12/29 05:40:15;;;;;;;17.50;11.63;;;8.90;99.90;;;;;;6158157;23;20337;-87
2021/12/29 05:42:43;;;;;;;23.50;12.30;;;8.90;99.90;;;;;;6132498;23;20372;-88
2021/12/29 05:45:13;;;;;;;18.95;12.70;;;8.90;99.90;;;;;;6158421;23;20005;-87
2021/12/29 05:47:39;;;;;;;18.20;11.98;;;8.90;99.90;;;;;;6158975;23;20013;-87
2021/12/29 05:50:11;;;;;;;18.10;11.75;;;8.90;99.90;;;;;;6159439;23;20001;-87
2021/12/29 05:52:37;;;;;;;21.95;13.32;;;8.90;99.90;;;;;;6157587;23;20631;-87
2021/12/29 05:55:04;;;;;;;21.70;12.82;;;8.90;99.90;;;;;;6185524;23;19993;-87
2021/12/29 05:57:36;;;;;;;19.13;12.35;;;8.90;99.90;;;;;;6158461;23;20489;-87
2021/12/29 06:00:08;;;;;;;19.42;12.32;;;8.90;99.90;;;;;;6135372;23;20430;-86
2021/12/29 06:02:35;;;;;;;14.93;11.45;;;8.90;99.90;;;;;;6158183;23;20019;-86
2021/12/29 06:05:03;;;;;;;15.40;11.68;;;9.00;99.90;;;;;;6184047;23;20107;-86
2021/12/29 06:07:28;;;;;;;17.02;11.45;;;8.90;99.90;;;;;;6158469;23;20001;-87
2021/12/29 06:09:55;;;;;;;15.52;10.55;;;8.90;99.90;;;;;;6134841;23;20084;-86
2021/12/29 06:12:21;;;;;;;14.63;10.82;;;8.90;99.90;;;;;;6133894;23;20032;-86
2021/12/29 06:14:47;;;;;;;15.60;11.55;;;8.90;99.90;;;;;;6158706;23;20005;-87
2021/12/29 06:17:14;;;;;;;16.88;11.00;;;8.90;99.90;;;;;;6158325;23;20318;-87
2021/12/29 06:19:40;;;;;;;17.33;11.05;;;8.90;99.90;;;;;;6158447;23;20005;-86
2021/12/29 06:22:11;;;;;;;15.85;10.50;;;8.90;99.90;;;;;;6158417;23;20155;-87
2021/12/29 06:24:41;;;;;;;14.73;10.18;;;8.90;99.90;;;;;;6158830;23;20013;-87
2021/12/29 06:27:11;;;;;;;14.45;10.43;;;8.90;99.90;;;;;;6158786;23;20009;-87
2021/12/29 06:29:40;;;;;;;18.23;11.82;;;9.00;99.90;;;;;;6135355;23;20457;-86
2021/12/29 06:32:08;;;;;;;15.95;11.25;;;9.00;99.90;;;;;;6190273;23;20001;-88
2021/12/29 06:34:36;;;;;;;18.70;11.57;;;8.90;99.90;;;;;;6191039;23;20020;-88
2021/12/29 06:37:04;;;;;;;17.38;12.40;;;8.90;99.90;;;;;;6172723;23;20085;-88
2021/12/29 06:39:30;;;;;;;19.63;11.30;;;8.90;99.90;;;;;;6184172;23;20017;-87
2021/12/29 06:41:56;;;;;;;18.83;11.88;;;8.90;99.90;;;;;;6184444;23;20013;-88
2021/12/29 06:44:21;;;;;;;16.73;10.93;;;8.90;99.90;;;;;;6179903;23;20410;-88
2021/12/29 06:46:48;;;;;;;15.45;10.75;;;8.90;99.90;;;;;;6195370;23;19997;-85
2021/12/29 06:49:15;;;;;;;20.42;11.27;;;8.90;99.90;;;;;;6186311;23;20059;-87
2021/12/29 06:51:41;;;;;;;18.67;12.68;;;8.90;99.90;;;;;;6161160;23;20005;-87
2021/12/29 06:54:06;;;;;;;22.08;12.38;;;8.90;99.90;;;;;;6159905;23;20497;-86
2021/12/29 06:56:32;;;;;;;21.88;13.27;;;8.80;99.90;;;;;;6159213;23;20448;-87
2021/12/29 06:59:00;;;;;;;19.23;12.60;;;8.80;99.90;;;;;;6185287;23;20072;-88
2021/12/29 07:01:26;;;;;;;22.00;13.70;;;8.80;99.90;;;;;;6159303;23;20075;-87
2021/12/29 07:03:51;;;;;;;20.42;13.15;;;8.80;99.90;;;;;;6159873;23;20032;-87
2021/12/29 07:06:17;;;;;;;21.77;12.13;;;8.80;99.90;;;;;;6159649;23;20004;-88
2021/12/29 07:08:43;;;;;;;22.08;13.20;;;8.80;99.90;;;;;;6159455;23;20001;-86
2021/12/29 07:11:09;;;;;;;29.00;14.93;;;8.80;99.90;;;;;;6134724;23;20012;-87
2021/12/29 07:13:35;;;;;;;28.67;14.43;;;8.80;99.90;;;;;;6190518;23;20013;-87
2021/12/29 07:16:00;;;;;;;20.88;13.52;;;8.80;99.90;;;;;;6160862;23;20011;-87
2021/12/29 07:18:27;;;;;;;22.35;13.50;;;8.80;99.90;;;;;;6158205;23;20032;-87
2021/12/29 07:20:52;;;;;;;21.77;13.98;;;8.80;99.90;;;;;;6134997;23;20032;-87
2021/12/29 07:23:18;;;;;;;23.10;14.15;;;8.70;99.90;;;;;;6110598;23;20023;-87
2021/12/29 07:25:46;;;;;;;23.90;13.85;;;8.80;99.90;;;;;;6159064;23;20004;-89
2021/12/29 07:28:14;;;;;;;22.38;15.32;;;8.70;99.90;;;;;;6160463;23;20402;-87
2021/12/29 07:30:41;;;;;;;28.60;15.52;;;8.70;99.90;;;;;;6135228;23;20096;-88
2021/12/29 07:33:10;;;;;;;28.08;15.07;;;8.70;99.90;;;;;;6160823;23;20013;-88
2021/12/29 07:35:36;;;;;;;23.50;14.88;;;8.70;99.90;;;;;;6161915;23;20009;-88
2021/12/29 07:38:01;;;;;;;21.98;13.73;;;8.70;99.90;;;;;;6162743;23;20021;-88
2021/12/29 07:40:28;;;;;;;22.73;15.38;;;8.70;99.90;;;;;;6187732;23;20001;-89
2021/12/29 07:42:54;;;;;;;20.83;14.95;;;8.80;99.90;;;;;;6160562;23;20100;-88
2021/12/29 07:45:25;;;;;;;21.25;14.52;;;8.70;99.90;;;;;;6187234;23;20004;-88
2021/12/29 07:47:52;;;;;;;22.73;14.38;;;8.70;99.90;;;;;;6137877;23;20040;-88
2021/12/29 07:50:22;;;;;;;19.70;13.38;;;8.70;99.90;;;;;;6138382;23;20017;-88
2021/12/29 07:52:49;;;;;;;21.67;13.63;;;8.70;99.90;;;;;;6160798;23;20001;-88
2021/12/29 07:55:19;;;;;;;22.73;13.95;;;8.70;99.90;;;;;;6136310;23;20013;-88
2021/12/29 07:57:46;;;;;;;25.23;14.90;;;8.60;99.90;;;;;;6160967;23;20024;-88
2021/12/29 08:00:13;;;;;;;24.40;14.43;;;8.60;99.90;;;;;;6136617;23;20005;-88
2021/12/29 08:02:43;;;;;;;22.88;14.95;;;8.60;99.90;;;;;;6186105;23;20024;-88
2021/12/29 08:05:12;;;;;;;25.58;16.33;;;8.60;99.90;;;;;;6161028;23;20051;-88
2021/12/29 08:07:43;;;;;;;28.85;16.23;;;8.60;99.90;;;;;;6161354;23;20001;-88
2021/12/29 08:10:13;;;;;;;27.73;16.88;;;8.60;99.90;;;;;;6187827;23;20430;-88
2021/12/29 08:13:03;;;;;;;23.25;16.25;;;8.60;99.90;;;;;;6161747;23;20299;-88
2021/12/29 08:15:29;;;;;;;25.45;16.08;;;8.60;99.90;;;;;;6140290;23;20012;-88
2021/12/29 08:17:59;;;;;;;24.35;16.98;;;8.60;99.90;;;;;;6161742;23;20005;-87
2021/12/29 08:20:27;;;;;;;27.23;15.98;;;8.60;99.90;;;;;;6161878;23;20005;-88
2021/12/29 08:22:55;;;;;;;29.30;18.10;;;8.60;99.90;;;;;;6161715;23;20437;-88
2021/12/29 08:25:24;;;;;;;31.13;16.70;;;8.60;99.90;;;;;;6165204;23;20005;-87
2021/12/29 08:27:52;;;;;;;28.15;17.17;;;8.60;99.90;;;;;;6164039;23;20017;-88
2021/12/29 08:30:18;;;;;;;27.05;16.35;;;8.70;99.90;;;;;;6185174;23;20080;-88
2021/12/29 08:32:44;;;;;;;21.63;15.20;;;8.60;99.90;;;;;;6156460;23;20013;-88
2021/12/29 08:35:11;;;;;;;22.25;14.68;;;8.70;99.90;;;;;;6161507;23;20085;-87
2021/12/29 08:37:43;;;;;;;23.75;16.50;;;8.70;99.90;;;;;;6186742;23;20017;-88
2021/12/29 08:40:15;;;;;;;23.95;14.65;;;8.70;99.90;;;;;;6187408;23;20005;-89
2021/12/29 08:42:46;;;;;;;23.33;14.38;;;8.70;99.90;;;;;;6160708;23;20016;-87
2021/12/29 08:45:18;;;;;;;27.63;16.00;;;8.70;99.90;;;;;;6186991;23;20088;-87
2021/12/29 08:47:45;;;;;;;26.10;15.82;;;8.80;99.90;;;;;;6187169;23;20028;-87
2021/12/29 08:50:14;;;;;;;24.40;15.57;;;8.80;99.90;;;;;;6162148;23;20028;-88
2021/12/29 08:52:42;;;;;;;27.55;16.23;;;8.80;99.90;;;;;;6163114;23;20012;-88
2021/12/29 08:55:10;;;;;;;26.83;16.92;;;8.80;99.90;;;;;;6161634;23;20031;-88
2021/12/29 08:57:38;;;;;;;27.60;17.58;;;8.70;99.90;;;;;;6161920;23;19997;-89
2021/12/29 09:00:09;;;;;;;30.83;17.63;;;8.70;99.90;;;;;;6187095;23;20005;-89
2021/12/29 09:02:35;;;;;;;29.33;18.23;;;8.70;99.90;;;;;;6162969;23;20024;-88
2021/12/29 09:05:01;;;;;;;30.38;18.25;;;8.70;99.90;;;;;;6144656;23;20374;-88
2021/12/29 09:07:29;;;;;;;29.10;17.17;;;8.70;99.90;;;;;;6167084;23;20028;-88
2021/12/29 09:10:00;;;;;;;36.65;22.20;;;8.70;99.90;;;;;;6162591;23;20479;-89
2021/12/29 09:12:26;;;;;;;34.25;20.00;;;8.70;99.90;;;;;;6163033;23;20001;-88
2021/12/29 09:14:52;;;;;;;28.08;17.85;;;8.70;99.90;;;;;;6162619;23;20008;-87
2021/12/29 09:17:20;;;;;;;33.22;18.38;;;8.70;99.90;;;;;;6190040;23;20005;-87
2021/12/29 09:19:46;;;;;;;33.70;19.13;;;8.70;99.90;;;;;;6161820;23;20060;-86
2021/12/29 09:22:21;;;;;;;28.25;18.63;;;8.70;99.90;;;;;;6187444;23;20012;-87
2021/12/29 09:24:47;;;;;;;26.67;17.27;;;8.80;99.90;;;;;;6161564;23;20005;-87
2021/12/29 09:27:15;;;;;;;33.15;17.95;;;8.70;99.90;;;;;;6159668;23;20032;-87
2021/12/29 09:29:42;;;;;;;30.88;17.95;;;8.80;99.90;;;;;;6187180;23;20029;-88
2021/12/29 09:32:10;;;;;;;29.60;18.25;;;8.80;99.90;;;;;;6162775;23;20038;-87
2021/12/29 09:34:43;;;;;;;28.80;17.77;;;8.80;99.90;;;;;;6161969;23;20437;-87
2021/12/29 09:37:11;;;;;;;32.05;19.10;;;8.80;99.90;;;;;;6160105;23;20337;-88
2021/12/29 09:39:37;;;;;;;29.27;18.13;;;8.80;99.90;;;;;;6184555;23;20005;-88
2021/12/29 09:42:06;;;;;;;27.42;17.05;;;8.90;99.90;;;;;;6158990;23;20433;-88
2021/12/29 09:44:32;;;;;;;30.92;18.15;;;8.90;99.90;;;;;;6159253;23;20009;-88
2021/12/29 09:47:06;;;;;;;31.50;16.73;;;8.90;99.90;;;;;;6159349;23;20322;-88
2021/12/29 09:49:42;;;;;;;28.33;16.50;;;8.90;99.90;;;;;;6183710;23;20012;-88
2021/12/29 09:52:14;;;;;;;29.65;17.75;;;8.90;99.90;;;;;;6159485;23;20012;-88
2021/12/29 09:54:46;;;;;;;26.88;16.65;;;8.90;99.90;;;;;;6160020;23;20006;-87
2021/12/29 09:57:13;;;;;;;26.20;15.97;;;8.90;99.90;;;;;;6160504;23;20011;-88
2021/12/29 09:59:43;;;;;;;26.17;16.02;;;8.90;99.90;;;;;;6162625;23;20291;-87
2021/12/29 10:02:12;;;;;;;24.15;15.25;;;8.90;99.90;;;;;;6163515;23;20048;-88
2021/12/29 10:04:37;;;;;;;27.58;16.67;;;8.90;99.90;;;;;;6164251;23;20001;-87
2021/12/29 10:07:30;;;;;;;26.83;16.52;;;8.90;99.90;;;;;;6178277;23;20068;-87
2021/12/29 10:10:06;;;;;;;28.15;16.70;;;9.00;99.90;;;;;;6206294;23;20008;-87
2021/12/29 10:12:45;;;;;;;23.83;15.77;;;9.00;99.90;;;;;;6184962;22;20092;-88
2021/12/29 10:15:16;;;;;;;26.08;16.20;;;9.00;99.90;;;;;;6186850;23;19993;-87
2021/12/29 10:17:44;;;;;;;27.30;17.15;;;9.10;99.90;;;;;;6184319;23;20035;-88
2021/12/29 10:20:18;;;;;;;32.47;17.92;;;9.10;99.90;;;;;;6137996;23;20012;-88
2021/12/29 10:22:55;;;;;;;31.63;18.35;;;9.10;99.90;;;;;;6137798;23;20009;-88
2021/12/29 10:25:24;;;;;;;28.05;16.73;;;9.10;99.90;;;;;;6187521;23;20009;-88
2021/12/29 10:27:53;;;;;;;23.55;15.70;;;9.20;99.90;;;;;;6161630;23;20039;-88
2021/12/29 10:30:31;;;;;;;27.33;17.13;;;9.10;99.90;;;;;;6160111;23;20005;-87
2021/12/29 10:33:10;;;;;;;23.10;16.08;;;9.20;99.90;;;;;;6160519;23;20363;-88
2021/12/29 10:35:38;;;;;;;26.02;16.48;;;9.20;99.90;;;;;;6165047;23;20017;-87
2021/12/29 10:38:16;;;;;;;32.03;18.50;;;9.30;99.90;;;;;;6187053;23;20024;-88
2021/12/29 10:40:43;;;;;;;29.88;17.33;;;9.30;99.90;;;;;;6186989;23;20085;-87
2021/12/29 10:43:13;;;;;;;29.13;18.13;;;9.30;99.90;;;;;;6161434;23;20335;-87
2021/12/29 10:45:43;;;;;;;32.85;19.02;;;9.30;99.90;;;;;;6187352;23;20005;-88
2021/12/29 10:48:22;;;;;;;29.58;19.17;;;9.30;99.90;;;;;;6160809;23;20406;-88
2021/12/29 10:51:08;;;;;;;31.75;18.60;;;9.30;99.90;;;;;;6160660;23;20020;-87
2021/12/29 10:53:45;;;;;;;24.08;16.77;;;9.30;99.90;;;;;;6187679;23;20007;-88
2021/12/29 10:56:24;;;;;;;26.38;16.75;;;9.40;99.90;;;;;;6161507;23;20009;-88
2021/12/29 10:58:53;;;;;;;29.17;17.92;;;9.40;99.90;;;;;;6162780;23;20005;-88
2021/12/29 11:01:20;;;;;;;27.15;17.80;;;9.40;99.90;;;;;;6139907;23;20008;-89
2021/12/29 11:03:58;;;;;;;25.80;17.35;;;9.40;99.90;;;;;;6167172;23;20005;-89
2021/12/29 11:06:26;;;;;;;24.45;17.17;;;9.40;99.90;;;;;;6163771;23;20001;-88
2021/12/29 11:09:02;;;;;;;26.10;17.45;;;9.40;99.90;;;;;;6161864;23;20322;-89
2021/12/29 11:11:40;;;;;;;25.02;17.00;;;9.40;99.90;;;;;;6161651;23;20001;-89
2021/12/29 11:14:42;;;;;;;23.67;18.35;;;9.40;99.90;;;;;;6160612;23;20009;-88
2021/12/29 11:17:24;;;;;;;26.02;17.92;;;9.50;99.90;;;;;;6154642;23;20053;-88
2021/12/29 11:20:02;;;;;;;26.75;19.58;;;9.60;99.90;;;;;;6159202;23;20009;-88
2021/12/29 11:22:29;;;;;;;24.33;18.50;;;9.60;99.90;;;;;;6161510;23;20414;-86
2021/12/29 11:25:07;;;;;;;28.90;19.65;;;9.60;99.90;;;;;;6159423;23;20017;-89
2021/12/29 11:27:41;;;;;;;23.17;18.88;;;9.60;99.90;;;;;;6162165;23;20013;-89
2021/12/29 11:30:22;;;;;;;23.63;18.08;;;9.60;99.90;;;;;;6185925;23;20001;-88
2021/12/29 11:33:15;;;;;;;27.00;19.35;;;9.60;99.90;;;;;;6159325;23;20024;-88
2021/12/29 11:35:55;;;;;;;27.88;19.90;;;9.60;99.90;;;;;;6157222;23;20092;-88
2021/12/29 11:38:23;;;;;;;23.75;18.70;;;9.60;99.90;;;;;;6135993;23;20075;-88
2021/12/29 11:41:01;;;;;;;27.92;19.10;;;9.50;99.90;;;;;;6133993;23;20092;-89
2021/12/29 11:43:31;;;;;;;26.38;20.25;;;9.50;99.90;;;;;;6160379;23;20005;-88
2021/12/29 11:46:06;;;;;;;25.92;19.20;;;9.50;99.90;;;;;;6160343;23;20044;-89
2021/12/29 11:48:38;;;;;;;28.88;20.30;;;9.50;99.90;;;;;;6160320;23;20012;-89
2021/12/29 11:51:09;;;;;;;24.88;18.98;;;9.40;99.90;;;;;;6187237;23;20009;-89
2021/12/29 11:54:00;;;;;;;25.38;19.73;;;9.40;99.90;;;;;;6160762;23;20430;-89
2021/12/29 11:56:29;;;;;;;24.67;19.75;;;9.40;99.90;;;;;;6161049;23;20008;-88
2021/12/29 11:59:07;;;;;;;26.27;19.10;;;9.40;99.90;;;;;;6137812;23;20012;-89
2021/12/29 12:01:37;;;;;;;25.40;19.00;;;9.40;99.90;;;;;;6166486;23;20013;-89
2021/12/29 12:04:19;;;;;;;25.70;19.65;;;9.40;99.90;;;;;;6212087;22;20069;-90
2021/12/29 12:07:01;;;;;;;24.27;18.88;;;9.30;99.90;;;;;;6184902;23;19982;-90
2021/12/29 12:09:29;;;;;;;25.70;17.67;;;9.40;99.90;;;;;;6166805;23;20012;-89
2021/12/29 12:12:02;;;;;;;24.65;17.75;;;9.40;99.90;;;;;;6158512;23;20020;-89
2021/12/29 12:15:02;;;;;;;;;;;9.40;99.90;;;;;;6170992;23;20005;-90
2021/12/29 12:17:29;;;;;;;21.42;15.63;;;9.40;99.90;;;;;;6135260;23;19920;-88
2021/12/29 12:20:19;;;;;;;21.50;14.70;;;9.40;99.90;;;;;;6186945;23;20366;-87
2021/12/29 12:23:02;;;;;;;20.27;16.02;;;9.40;99.90;;;;;;6136817;23;20067;-88
2021/12/29 12:25:36;;;;;;;16.95;13.75;;;9.50;99.90;;;;;;6161059;23;20016;-88
2021/12/29 12:28:16;;;;;;;24.95;17.27;;;9.50;99.90;;;;;;6187470;23;20028;-88
2021/12/29 12:30:54;;;;;;;23.90;17.42;;;9.40;99.90;;;;;;6162373;23;20012;-88
2021/12/29 12:33:30;;;;;;;24.67;17.23;;;9.40;99.90;;;;;;6137440;23;20036;-88
2021/12/29 12:36:08;;;;;;;26.33;16.55;;;9.40;99.90;;;;;;6161757;23;20001;-87
2021/12/29 12:38:40;;;;;;;25.45;16.20;;;9.40;99.90;;;;;;6154174;23;20052;-89
2021/12/29 12:41:23;;;;;;;24.42;16.38;;;9.40;99.90;;;;;;6161825;23;20021;-87
2021/12/29 12:43:54;;;;;;;;;;;9.40;99.90;;;;;;6187406;23;20012;-88
2021/12/29 12:46:40;;;;;;;21.35;15.30;;;9.40;99.90;;;;;;6161198;23;20502;-89
2021/12/29 12:49:30;;;;;;;21.52;15.13;;;9.40;99.90;;;;;;6156200;23;20084;-86
2021/12/29 12:52:20;;;;;;;22.85;15.32;;;9.40;99.90;;;;;;6150998;23;20548;-89
2021/12/29 12:55:08;;;;;;;22.55;14.35;;;9.30;99.90;;;;;;6157097;23;20450;-86
2021/12/29 12:57:50;;;;;;;21.42;14.90;;;9.30;99.90;;;;;;6133785;23;20009;-88
2021/12/29 13:00:30;;;;;;;19.15;14.93;;;9.30;99.90;;;;;;6157878;23;20458;-87
2021/12/29 13:03:03;;;;;;;24.17;15.02;;;9.30;99.90;;;;;;6158993;23;20012;-86